Time;durP1;ratioP1;P1;durP2;ratioP2;P2;SDS_P1;SDS_P2;PMS_P1;PMS_P2;Temp;Humidity;BMP_temperature;BMP_pressure;BME280_temperature;BME280_humidity;BME280_pressure;Samples;Min_cycle;Max_cycle;Signal;HPM_P1;HPM_P2
2021/07/18 00:00:14;;;;;;;5.50;3.37;;;;;;;21.09;58.31;100523.69;5075676;28;20205;-69
2021/07/18 00:02:42;;;;;;;6.30;3.30;;;;;;;20.91;58.40;100484.03;5092308;28;20224;-69
2021/07/18 00:05:11;;;;;;;4.60;2.93;;;;;;;21.14;58.21;100514.97;5077276;28;20192;-67
2021/07/18 00:07:39;;;;;;;4.57;3.03;;;;;;;21.14;58.79;100523.19;5082294;28;20215;-66
2021/07/18 00:10:10;;;;;;;6.87;3.33;;;;;;;21.07;58.99;100511.22;5080734;28;20202;-68
2021/07/18 00:12:38;;;;;;;4.77;2.70;;;;;;;21.06;58.81;100513.13;5077596;28;20538;-68
2021/07/18 00:15:08;;;;;;;6.07;3.37;;;;;;;21.04;59.04;100519.78;5070786;28;20207;-70
2021/07/18 00:17:38;;;;;;;6.10;3.00;;;;;;;21.09;59.04;100520.09;5078355;28;21171;-68
2021/07/18 00:20:08;;;;;;;6.67;3.20;;;;;;;21.02;59.40;100508.19;5085919;28;20685;-68
2021/07/18 00:22:37;;;;;;;6.97;3.10;;;;;;;20.88;59.47;100493.41;5089330;28;20203;-70
2021/07/18 00:25:06;;;;;;;8.13;2.87;;;;;;;20.85;59.47;100491.03;5075681;28;20208;-70
2021/07/18 00:27:36;;;;;;;12.07;3.00;;;;;;;20.81;58.95;100500.59;5081943;28;20877;-68
2021/07/18 00:30:05;;;;;;;6.27;3.17;;;;;;;20.86;60.44;100513.72;5084343;28;20213;-67
2021/07/18 00:32:34;;;;;;;4.77;2.90;;;;;;;20.86;60.00;100511.84;5084220;28;20192;-70
2021/07/18 00:35:02;;;;;;;6.30;2.87;;;;;;;20.85;60.71;100512.88;5084350;28;20288;-69
2021/07/18 00:37:30;;;;;;;5.87;2.97;;;;;;;20.68;60.15;100478.47;5080795;28;20197;-70
2021/07/18 00:39:58;;;;;;;4.33;2.60;;;;;;;20.82;61.42;100493.28;5092895;28;20204;-69
2021/07/18 00:42:27;;;;;;;7.50;2.97;;;;;;;20.82;60.98;100494.13;5074558;28;20737;-69
2021/07/18 00:44:56;;;;;;;5.13;2.97;;;;;;;;;;5084896;28;20212;-70
2021/07/18 00:47:24;;;;;;;7.07;3.10;;;;;;;;;;5089258;28;20592;-69
2021/07/18 00:49:52;;;;;;;20.90;3.73;;;;;;;20.76;62.11;100495.66;5092706;28;20696;-70
2021/07/18 00:52:20;;;;;;;6.27;2.93;;;;;;;20.74;62.04;100481.34;5092974;28;20201;-69
2021/07/18 00:54:49;;;;;;;6.27;3.10;;;;;;;20.73;62.65;100489.69;5084020;28;20568;-69
2021/07/18 00:57:17;;;;;;;6.30;3.10;;;;;;;20.71;62.78;100486.31;5083071;28;20200;-69
2021/07/18 00:59:53;;;;;;;8.13;2.77;;;;;;;20.51;62.78;100444.94;5077023;28;20200;-70
2021/07/18 01:02:22;;;;;;;9.87;3.13;;;;;;;20.64;63.59;100472.50;5078174;28;20197;-69
2021/07/18 01:04:51;;;;;;;4.67;2.60;;;;;;;20.63;63.96;100478.16;5075159;28;20206;-70
2021/07/18 01:07:19;;;;;;;7.07;3.10;;;;;;;20.63;62.99;100478.16;5080697;28;20197;-70
2021/07/18 01:09:47;;;;;;;5.20;2.40;;;;;;;20.64;63.75;100474.38;5091283;28;20205;-68
2021/07/18 01:12:16;;;;;;;4.77;2.70;;;;;;;20.63;63.84;100467.22;5080172;28;20521;-67
2021/07/18 01:14:45;;;;;;;8.03;2.90;;;;;;;20.53;64.33;100467.44;5087050;28;20196;-67
2021/07/18 01:17:13;;;;;;;4.03;2.50;;;;;;;20.53;64.79;100470.19;5084362;28;20215;-67
2021/07/18 01:19:43;;;;;;;6.83;2.73;;;;;;;20.56;65.18;100467.09;5086687;28;20197;-67
2021/07/18 01:22:13;;;;;;;8.70;2.80;;;;;;;20.54;65.53;100471.88;5083094;28;20194;-67
2021/07/18 01:24:41;;;;;;;5.87;2.43;;;;;;;20.57;64.54;100463.34;5086585;28;20205;-67
2021/07/18 01:27:09;;;;;;;5.97;2.50;;;;;;;20.54;64.66;100455.50;5074941;28;20608;-67
2021/07/18 01:29:37;;;;;;;4.90;2.90;;;;;;;20.53;65.14;100459.25;5089620;28;20955;-68
2021/07/18 01:32:06;;;;;;;4.50;2.30;;;;;;;20.54;65.48;100458.22;5086473;28;20579;-70
2021/07/18 01:34:34;;;;;;;6.80;2.60;;;;;;;20.48;66.27;100455.31;5105620;28;20219;-70
2021/07/18 01:37:02;;;;;;;4.70;2.70;;;;;;;20.48;65.89;100453.44;5086431;28;20234;-69
2021/07/18 01:39:32;;;;;;;5.63;2.57;;;;;;;20.44;66.58;100452.94;5078705;28;20205;-70
2021/07/18 01:42:00;;;;;;;5.73;2.23;;;;;;;20.46;66.29;100459.09;5084284;28;20295;-70
2021/07/18 01:44:29;;;;;;;3.80;2.17;;;;;;;20.49;66.00;100465.22;5081566;28;20223;-70
2021/07/18 01:46:58;;;;;;;6.37;2.20;;;;;;;20.50;66.49;100456.84;5078092;28;20207;-70
2021/07/18 01:49:27;;;;;;;4.77;2.53;;;;;;;20.43;67.15;100455.84;5078757;28;20529;-70
2021/07/18 01:51:55;;;;;;;7.47;2.40;;;;;;;20.42;66.92;100449.56;5088156;28;20204;-70
2021/07/18 01:54:24;;;;;;;5.07;1.90;;;;;;;20.43;66.50;100455.84;5084178;28;20367;-70
2021/07/18 01:56:53;;;;;;;4.10;2.37;;;;;;;20.34;67.14;100443.25;5086848;28;20209;-70
2021/07/18 01:59:21;;;;;;;4.60;2.13;;;;;;;20.39;67.18;100459.94;5076594;28;20217;-70
2021/07/18 02:01:50;;;;;;;8.43;2.23;;;;;;;20.30;67.86;100458.25;5080276;28;20215;-70
2021/07/18 02:04:18;;;;;;;3.43;2.00;;;;;;;20.38;66.92;100464.53;5087919;28;20199;-70
2021/07/18 02:06:46;;;;;;;5.73;2.67;;;;;;;20.37;66.67;100464.72;5090202;28;20219;-70
2021/07/18 02:09:14;;;;;;;6.80;2.50;;;;;;;20.30;67.97;100466.44;5079744;28;20223;-69
2021/07/18 02:11:42;;;;;;;6.57;2.50;;;;;;;20.25;68.07;100457.94;5084464;28;20205;-69
2021/07/18 02:14:12;;;;;;;4.37;2.23;;;;;;;20.25;67.88;100461.50;5074563;28;20197;-69
2021/07/18 02:16:40;;;;;;;5.00;2.20;;;;;;;20.29;67.52;100465.59;5074940;28;20196;-69
2021/07/18 02:19:09;;;;;;;7.93;2.63;;;;;;;20.23;68.23;100462.72;5071884;28;20272;-69
2021/07/18 02:21:39;;;;;;;4.77;2.33;;;;;;;20.26;68.08;100462.38;5091008;28;20752;-69
2021/07/18 02:24:08;;;;;;;5.40;2.40;;;;;;;20.24;68.55;100467.16;5090701;28;20195;-69
2021/07/18 02:26:37;;;;;;;4.70;2.17;;;;;;;20.31;66.15;100458.09;5077501;28;20608;-69
2021/07/18 02:29:06;;;;;;;4.20;1.97;;;;;;;20.37;65.85;100453.81;5070894;28;20312;-69
2021/07/18 02:31:35;;;;;;;3.67;2.03;;;;;;;20.37;65.58;100445.63;5077092;28;20205;-69
2021/07/18 02:34:04;;;;;;;3.27;2.07;;;;;;;20.39;66.13;100443.56;5078680;28;20210;-69
2021/07/18 02:36:33;;;;;;;10.70;2.30;;;;;;;20.37;67.38;100442.88;5075837;28;20210;-69
2021/07/18 02:39:02;;;;;;;7.03;2.10;;;;;;;20.36;66.61;100438.47;5084282;28;20203;-69
2021/07/18 02:41:38;;;;;;;4.30;2.00;;;;;;;18.76;66.32;100165.09;5073850;28;20205;-69
2021/07/18 02:44:29;;;;;;;4.53;1.70;;;;;;;20.37;66.55;100426.53;5074774;28;20197;-69
2021/07/18 02:47:28;;;;;;;2.23;1.60;;;;;;;20.47;67.01;100454.47;5074210;28;20197;-70
2021/07/18 02:50:24;;;;;;;4.43;1.70;;;;;;;20.29;67.24;100412.91;5083644;28;20188;-70
2021/07/18 02:53:01;;;;;;;4.93;1.90;;;;;;;20.72;67.16;100456.09;5077606;28;20201;-70
2021/07/18 02:55:29;;;;;;;3.40;1.80;;;;;;;20.91;67.69;100457.56;5085168;28;20204;-69
2021/07/18 02:57:57;;;;;;;2.67;1.67;;;;;;;21.20;66.34;100454.16;5072132;28;20193;-70
2021/07/18 03:00:27;;;;;;;2.27;1.70;;;;;;;21.52;66.87;100446.81;5082779;28;20204;-69
2021/07/18 03:02:57;;;;;;;2.17;1.50;;;;;;;21.89;65.65;100446.84;5076039;28;20280;-70
2021/07/18 03:05:25;;;;;;;2.60;1.37;;;;;;;22.16;65.01;100448.16;5070461;28;20192;-70
2021/07/18 03:07:53;;;;;;;5.97;1.53;;;;;;;22.30;63.54;100450.06;5088662;28;20207;-70
2021/07/18 03:10:22;;;;;;;3.50;1.50;;;;;;;22.40;63.57;100451.69;5083137;28;20664;-70
2021/07/18 03:12:50;;;;;;;4.23;1.30;;;;;;;22.52;63.56;100448.28;5074737;28;20208;-70
2021/07/18 03:15:18;;;;;;;4.73;1.33;;;;;;;22.51;62.81;100452.06;5089020;28;20236;-70
2021/07/18 03:17:47;;;;;;;1.40;1.30;;;;;;;22.67;61.81;100442.81;5083414;28;20200;-71
2021/07/18 03:20:18;;;;;;;2.43;1.73;;;;;;;22.66;61.65;100445.75;5078270;28;20747;-70
2021/07/18 03:22:47;;;;;;;7.83;1.60;;;;;;;22.60;61.41;100453.66;5075962;28;20288;-70
2021/07/18 03:25:17;;;;;;;4.80;1.57;;;;;;;22.55;61.05;100449.78;5071906;28;20197;-70
2021/07/18 03:27:46;;;;;;;3.67;1.60;;;;;;;22.44;61.55;100461.22;5080748;28;20708;-69
2021/07/18 03:30:17;;;;;;;1.47;1.37;;;;;;;22.40;61.76;100457.16;5075796;28;20218;-70
2021/07/18 03:32:46;;;;;;;2.93;1.80;;;;;;;22.39;61.18;100448.09;5080821;28;20228;-70
2021/07/18 03:35:16;;;;;;;3.00;1.43;;;;;;;22.31;61.88;100449.00;5086399;28;20208;-68
2021/07/18 03:37:44;;;;;;;4.40;1.57;;;;;;;22.36;62.25;100453.09;5074306;28;20209;-68
2021/07/18 03:40:14;;;;;;;3.07;1.53;;;;;;;22.46;61.54;100454.50;5084547;28;20196;-68
2021/07/18 03:42:43;;;;;;;2.20;1.40;;;;;;;22.42;60.61;100449.59;5086854;28;20208;-68
2021/07/18 03:45:13;;;;;;;3.13;1.43;;;;;;;22.45;61.40;100454.69;5075706;28;20244;-67
2021/07/18 03:47:42;;;;;;;2.10;1.33;;;;;;;22.43;61.18;100457.63;5085031;28;20558;-70
2021/07/18 03:50:11;;;;;;;2.43;1.30;;;;;;;22.41;61.40;100458.84;5084085;28;20282;-68
2021/07/18 03:52:41;;;;;;;3.60;1.20;;;;;;;22.46;61.12;100457.25;5081492;28;20205;-70
2021/07/18 03:55:15;;;;;;;4.10;1.43;;;;;;;22.52;60.94;100461.13;5077951;28;20198;-67
2021/07/18 03:57:43;;;;;;;3.47;1.33;;;;;;;22.52;59.78;100458.38;5073559;28;20637;-68
2021/07/18 04:00:12;;;;;;;2.43;1.30;;;;;;;22.53;59.77;100466.41;5084455;28;20208;-70
2021/07/18 04:02:40;;;;;;;2.97;1.40;;;;;;;22.53;60.09;100473.75;5085483;28;20204;-70
2021/07/18 04:05:09;;;;;;;3.73;1.10;;;;;;;22.53;60.37;100471.03;5083404;28;20199;-68
2021/07/18 04:07:37;;;;;;;2.63;1.30;;;;;;;22.45;60.42;100460.19;5078074;28;20196;-70
2021/07/18 04:10:08;;;;;;;2.47;1.50;;;;;;;22.54;59.98;100467.25;5087740;28;20224;-70
2021/07/18 04:12:36;;;;;;;7.67;1.40;;;;;;;22.51;60.01;100457.53;5083348;28;20204;-70
2021/07/18 04:15:05;;;;;;;1.70;1.27;;;;;;;22.55;59.38;100461.59;5091592;28;20228;-69
2021/07/18 04:17:33;;;;;;;1.27;1.00;;;;;;;22.55;59.26;100463.47;5083695;28;20201;-68
2021/07/18 04:20:02;;;;;;;3.70;1.33;;;;;;;22.54;58.68;100457.16;5079824;28;20230;-68
2021/07/18 04:22:30;;;;;;;2.57;1.20;;;;;;;22.56;58.38;100452.34;5093749;28;20873;-68
2021/07/18 04:24:58;;;;;;;2.77;1.30;;;;;;;22.52;59.47;100461.13;5089899;28;20425;-69
2021/07/18 04:27:27;;;;;;;3.30;1.30;;;;;;;22.56;58.75;100457.81;5081833;28;20216;-69
2021/07/18 04:29:55;;;;;;;2.00;1.00;;;;;;;22.61;58.65;100460.81;5088685;28;20227;-69
2021/07/18 04:32:24;;;;;;;1.37;1.20;;;;;;;22.48;59.99;100444.22;5088178;28;20643;-69
2021/07/18 04:34:52;;;;;;;1.43;1.23;;;;;;;22.60;58.76;100445.44;5081082;28;20575;-69
2021/07/18 04:37:20;;;;;;;4.40;1.40;;;;;;;22.50;58.30;100420.25;5085109;28;20193;-70
2021/07/18 04:39:48;;;;;;;2.87;1.10;;;;;;;22.72;58.64;100451.31;5083844;28;20571;-69
2021/07/18 04:42:16;;;;;;;3.37;1.30;;;;;;;22.76;58.29;100447.13;5083831;28;20538;-69
2021/07/18 04:44:46;;;;;;;3.07;1.50;;;;;;;22.83;58.34;100445.34;5085029;28;22303;-70
2021/07/18 04:47:14;;;;;;;1.10;1.00;;;;;;;22.87;57.84;100443.94;5088670;28;20730;-69
2021/07/18 04:49:42;;;;;;;1.73;0.90;;;;;;;22.94;57.58;100444.00;5077872;28;20236;-70
2021/07/18 04:52:10;;;;;;;3.53;1.10;;;;;;;23.01;57.09;100442.22;5089670;28;20276;-69
2021/07/18 04:54:38;;;;;;;1.23;1.13;;;;;;;22.94;57.92;100449.50;5085400;28;20291;-69
2021/07/18 04:57:07;;;;;;;3.23;1.10;;;;;;;22.70;57.98;100411.47;5080186;28;20594;-68
2021/07/18 04:59:35;;;;;;;2.90;1.10;;;;;;;22.98;58.23;100460.94;5077238;28;20197;-68
2021/07/18 05:02:05;;;;;;;2.27;1.30;;;;;;;23.05;57.51;100451.75;5079484;28;20677;-68
2021/07/18 05:04:34;;;;;;;4.23;1.03;;;;;;;23.02;56.96;100438.44;5091821;28;20661;-68
2021/07/18 05:07:02;;;;;;;1.30;1.10;;;;;;;23.20;57.79;100460.78;5090518;28;20196;-68
2021/07/18 05:09:31;;;;;;;1.57;0.90;;;;;;;23.22;58.33;100453.22;5089560;28;20408;-68
2021/07/18 05:11:59;;;;;;;2.60;1.20;;;;;;;23.46;57.17;100465.72;5089992;28;20558;-70
2021/07/18 05:14:28;;;;;;;3.23;1.00;;;;;;;23.55;56.56;100458.19;5079112;28;20211;-68
2021/07/18 05:16:56;;;;;;;2.27;1.10;;;;;;;23.61;56.39;100453.88;5091270;28;20197;-69
2021/07/18 05:19:25;;;;;;;4.40;1.13;;;;;;;23.64;56.31;100448.84;5083884;28;20188;-69
2021/07/18 05:21:57;;;;;;;1.00;0.90;;;;;;;23.89;55.67;100457.53;5042365;28;20206;-68
2021/07/18 05:24:26;;;;;;;1.13;1.03;;;;;;;23.97;55.58;100457.38;5050415;28;20232;-69
2021/07/18 05:26:54;;;;;;;1.20;1.10;;;;;;;24.00;55.71;100456.13;5046938;28;20585;-69
2021/07/18 05:29:22;;;;;;;2.77;1.03;;;;;;;24.32;54.99;100460.22;5039356;28;20617;-68
2021/07/18 05:31:50;;;;;;;2.47;1.20;;;;;;;24.39;54.88;100445.47;5037874;28;20549;-68
2021/07/18 05:34:19;;;;;;;1.30;1.00;;;;;;;24.62;54.26;100456.19;5038754;28;20190;-68
2021/07/18 05:36:48;;;;;;;1.30;1.17;;;;;;;24.73;54.17;100458.34;5042338;28;20287;-69
2021/07/18 05:39:16;;;;;;;2.33;1.10;;;;;;;24.79;53.40;100451.19;5037753;28;20721;-69
2021/07/18 05:41:44;;;;;;;1.20;1.10;;;;;;;25.00;53.24;100456.59;5055087;28;20221;-70
2021/07/18 05:44:12;;;;;;;1.57;1.20;;;;;;;25.35;52.91;100456.50;5040443;28;20199;-70
2021/07/18 05:46:44;;;;;;;1.10;0.83;;;;;;;25.53;51.56;100458.69;5038600;28;20207;-70
2021/07/18 05:49:12;;;;;;;1.33;1.07;;;;;;;25.69;51.50;100447.31;5034774;28;20211;-69
2021/07/18 05:51:40;;;;;;;1.10;1.00;;;;;;;25.97;50.33;100467.22;5047171;28;20293;-69
2021/07/18 05:54:11;;;;;;;1.98;1.30;;;;;;;25.99;48.96;100461.50;5058606;28;20194;-69
2021/07/18 05:56:39;;;;;;;3.65;1.27;;;;;;;25.83;47.83;100437.16;5042340;28;20201;-73
2021/07/18 05:59:07;;;;;;;2.58;1.23;;;;;;;26.02;48.42;100463.88;5048547;28;20886;-72
2021/07/18 06:01:35;;;;;;;2.65;1.35;;;;;;;26.19;47.72;100476.13;5038109;28;20218;-72
2021/07/18 06:04:04;;;;;;;1.30;1.20;;;;;;;26.24;47.40;100465.31;5046911;28;20194;-72
2021/07/18 06:06:32;;;;;;;1.17;1.00;;;;;;;26.33;46.71;100471.47;5040458;28;20221;-73
2021/07/18 06:09:00;;;;;;;2.28;1.40;;;;;;;26.54;45.88;100464.88;5039827;28;20198;-72
2021/07/18 06:11:30;;;;;;;1.60;1.20;;;;;;;26.75;46.67;100478.41;5041610;28;20224;-72
2021/07/18 06:13:59;;;;;;;2.38;1.30;;;;;;;26.77;45.34;100461.66;5044916;28;20202;-72
2021/07/18 06:16:27;;;;;;;2.45;1.38;;;;;;;26.96;44.70;100480.03;5038236;28;20194;-72
2021/07/18 06:18:55;;;;;;;1.40;1.30;;;;;;;27.13;44.03;100484.03;5043600;28;20205;-72
2021/07/18 06:21:24;;;;;;;1.20;1.10;;;;;;;27.32;43.70;100481.41;5075161;28;20460;-73
2021/07/18 06:23:52;;;;;;;1.75;1.20;;;;;;;27.41;43.13;100485.59;5086571;28;20189;-73
2021/07/18 06:26:20;;;;;;;3.03;1.65;;;;;;;27.31;42.90;100477.81;5082026;28;20512;-73
2021/07/18 06:28:49;;;;;;;1.50;1.40;;;;;;;27.46;43.83;100478.34;5087548;28;20204;-73
2021/07/18 06:31:17;;;;;;;2.10;1.33;;;;;;;27.52;43.54;100485.72;5074352;28;20217;-73
2021/07/18 06:33:46;;;;;;;2.88;1.30;;;;;;;27.82;43.38;100482.38;5072010;28;20239;-73
2021/07/18 06:36:14;;;;;;;1.50;1.30;;;;;;;27.96;42.61;100488.69;5075410;28;20288;-73
2021/07/18 06:38:42;;;;;;;1.80;1.30;;;;;;;28.17;42.47;100492.97;5086213;28;20204;-73
2021/07/18 06:41:10;;;;;;;1.80;1.58;;;;;;;28.38;41.98;100495.34;5075092;28;20227;-73
2021/07/18 06:43:38;;;;;;;1.58;1.48;;;;;;;28.24;41.56;100479.94;5081632;28;20197;-73
2021/07/18 06:46:29;;;;;;;1.40;1.30;;;;;;;28.29;41.65;100486.50;5080073;28;20278;-73
2021/07/18 06:48:57;;;;;;;1.95;1.30;;;;;;;28.41;41.32;100486.59;5085410;28;20246;-73
2021/07/18 06:51:26;;;;;;;2.15;1.20;;;;;;;28.57;41.21;100491.56;5075163;28;20618;-73
2021/07/18 06:53:54;;;;;;;1.17;1.17;;;;;;;28.72;40.40;100491.19;5086885;28;20208;-71
2021/07/18 06:56:30;;;;;;;2.13;1.60;;;;;;;28.81;40.36;100494.50;5084182;28;20704;-68
2021/07/18 06:58:59;;;;;;;1.52;1.20;;;;;;;29.03;40.45;100490.22;5087708;28;20201;-69
2021/07/18 07:01:29;;;;;;;2.63;1.40;;;;;;;29.25;40.43;100494.19;5081781;28;20201;-73
2021/07/18 07:03:58;;;;;;;1.23;1.20;;;;;;;29.04;39.42;100491.91;5082662;28;20289;-68
2021/07/18 07:06:26;;;;;;;2.22;1.42;;;;;;;29.02;38.86;100483.84;5090415;28;20216;-72
2021/07/18 07:08:54;;;;;;;1.95;1.50;;;;;;;29.06;38.84;100467.63;5080120;28;20678;-70
2021/07/18 07:11:22;;;;;;;1.40;1.30;;;;;;;29.30;38.70;100486.03;5079792;28;20593;-68
2021/07/18 07:13:51;;;;;;;2.45;1.50;;;;;;;28.71;38.66;100462.69;5085539;28;20197;-68
2021/07/18 07:16:20;;;;;;;1.35;1.27;;;;;;;28.98;38.68;100490.06;5077698;28;20193;-68
2021/07/18 07:18:49;;;;;;;1.63;1.35;;;;;;;28.73;37.89;100490.94;5081730;28;20606;-72
2021/07/18 07:21:17;;;;;;;2.08;1.20;;;;;;;28.54;38.57;100494.78;5088337;28;20232;-72
2021/07/18 07:23:46;;;;;;;1.80;1.45;;;;;;;28.60;38.64;100496.63;5084544;28;20204;-68
2021/07/18 07:26:16;;;;;;;1.75;1.48;;;;;;;28.45;39.37;100491.44;5087864;28;20205;-73
2021/07/18 07:28:44;;;;;;;1.65;1.55;;;;;;;28.14;39.62;100510.81;5076326;28;20197;-69
2021/07/18 07:31:13;;;;;;;2.35;1.45;;;;;;;28.13;40.17;100496.16;5088605;28;20216;-69
2021/07/18 07:33:41;;;;;;;6.32;1.50;;;;;;;28.44;40.24;100508.25;5083145;28;20204;-71
2021/07/18 07:36:10;;;;;;;2.05;1.50;;;;;;;28.54;37.97;100499.47;5080815;28;20215;-73
2021/07/18 07:38:38;;;;;;;1.50;1.40;;;;;;;28.52;38.96;100488.63;5086719;28;20185;-74
2021/07/18 07:41:06;;;;;;;1.70;1.60;;;;;;;28.70;38.13;100502.47;5082905;28;20560;-74
2021/07/18 07:43:35;;;;;;;5.82;1.60;;;;;;;29.07;38.25;100505.28;5080228;28;20200;-74
2021/07/18 07:46:04;;;;;;;1.50;1.40;;;;;;;29.34;38.33;100498.34;5074737;28;20197;-74
2021/07/18 07:48:32;;;;;;;1.60;1.50;;;;;;;29.50;37.50;100491.34;5076316;28;20681;-74
2021/07/18 07:51:02;;;;;;;2.58;1.35;;;;;;;29.67;37.30;100492.38;5075338;28;20239;-68
2021/07/18 07:53:32;;;;;;;1.90;1.40;;;;;;;30.07;38.10;100499.25;5078187;28;20205;-73
2021/07/18 07:56:00;;;;;;;1.63;1.50;;;;;;;29.82;35.56;100491.94;5075714;28;20197;-68
2021/07/18 07:58:29;;;;;;;1.55;1.45;;;;;;;30.24;36.40;100494.69;5074088;28;20274;-68
2021/07/18 08:00:57;;;;;;;1.50;1.40;;;;;;;30.15;34.84;100496.97;5071860;28;20219;-66
2021/07/18 08:03:25;;;;;;;1.90;1.60;;;;;;;29.95;34.30;100500.03;5073955;28;20386;-68
2021/07/18 08:05:54;;;;;;;2.50;1.50;;;;;;;29.89;34.65;100497.38;5069206;28;20200;-67
2021/07/18 08:08:23;;;;;;;2.75;1.40;;;;;;;29.63;34.23;100493.06;5073975;28;20912;-66
2021/07/18 08:11:08;;;;;;;2.35;1.60;;;;;;;29.30;35.42;100463.91;5075460;28;20213;-66
2021/07/18 08:13:40;;;;;;;1.55;1.45;;;;;;;29.27;34.84;100492.03;5071211;28;20196;-66
2021/07/18 08:16:09;;;;;;;3.83;1.60;;;;;;;29.31;35.40;100484.13;5074711;28;20205;-67
2021/07/18 08:18:38;;;;;;;2.60;1.48;;;;;;;29.36;35.40;100487.03;5073256;28;20311;-67
2021/07/18 08:21:07;;;;;;;1.98;1.67;;;;;;;29.55;35.28;100490.66;5075066;28;20235;-66
2021/07/18 08:23:35;;;;;;;2.13;1.80;;;;;;;29.22;34.99;100489.13;5073343;28;20204;-67
2021/07/18 08:26:04;;;;;;;1.42;1.33;;;;;;;29.36;35.75;100482.34;5071378;28;20226;-66
2021/07/18 08:28:38;;;;;;;1.95;1.40;;;;;;;29.48;35.56;100498.19;5071686;28;20307;-66
2021/07/18 08:31:06;;;;;;;1.95;1.60;;;;;;;29.35;35.47;100496.41;5073862;28;20260;-67
2021/07/18 08:33:37;;;;;;;1.90;1.70;;;;;;;29.16;34.02;100487.31;5074444;28;20197;-67
2021/07/18 08:36:05;;;;;;;1.70;1.60;;;;;;;29.24;35.95;100486.13;5068608;28;20240;-67
2021/07/18 08:38:34;;;;;;;1.70;1.60;;;;;;;29.28;35.60;100466.06;5075117;28;20540;-67
2021/07/18 08:41:02;;;;;;;1.85;1.70;;;;;;;29.15;33.62;100482.84;5070753;28;20202;-67
2021/07/18 08:43:46;;;;;;;4.53;1.50;;;;;;;29.09;34.30;100461.66;5069309;28;20202;-73
2021/07/18 08:46:18;;;;;;;1.50;1.40;;;;;;;29.34;34.37;100492.78;5072763;28;20205;-73
2021/07/18 08:48:47;;;;;;;1.55;1.35;;;;;;;29.78;34.99;100495.44;5076810;28;20209;-74
2021/07/18 08:51:16;;;;;;;1.60;1.50;;;;;;;29.98;34.66;100482.09;5077660;28;20216;-72
2021/07/18 08:53:44;;;;;;;1.40;1.30;;;;;;;30.22;34.76;100485.78;5073135;28;20212;-71
2021/07/18 08:56:13;;;;;;;1.77;1.40;;;;;;;30.22;34.04;100494.09;5077359;28;20201;-73
2021/07/18 08:58:41;;;;;;;1.65;1.55;;;;;;;30.33;33.55;100496.06;5073390;28;20197;-72
2021/07/18 09:01:13;;;;;;;2.17;1.60;;;;;;;30.52;33.24;100494.84;5084550;28;20188;-73
2021/07/18 09:03:42;;;;;;;1.55;1.45;;;;;;;30.42;31.35;100500.16;5082108;28;20208;-72
2021/07/18 09:06:12;;;;;;;1.70;1.60;;;;;;;30.70;32.88;100496.69;5076929;28;20208;-72
2021/07/18 09:08:46;;;;;;;1.50;1.40;;;;;;;31.02;33.06;100499.91;5083011;28;20707;-72
2021/07/18 09:11:18;;;;;;;2.08;1.50;;;;;;;31.33;31.12;100500.56;5080422;28;20224;-69
2021/07/18 09:14:00;;;;;;;1.65;1.55;;;;;;;31.33;32.04;100495.00;5079620;28;20287;-70
2021/07/18 09:16:33;;;;;;;1.40;1.30;;;;;;;31.20;31.14;100519.16;5076468;28;20257;-71
2021/07/18 09:19:19;;;;;;;1.95;1.65;;;;;;;30.51;31.94;100515.34;5079768;28;20207;-68
2021/07/18 09:22:16;;;;;;;1.50;1.40;;;;;;;30.17;32.50;100516.97;5082258;28;20301;-68
2021/07/18 09:24:48;;;;;;;2.50;1.35;;;;;;;29.90;33.70;100513.75;5080835;28;20209;-69
2021/07/18 09:27:25;;;;;;;1.73;1.60;;;;;;;29.96;34.16;100503.66;5076417;28;20299;-69
2021/07/18 09:29:56;;;;;;;2.10;1.45;;;;;;;30.35;34.02;100501.34;5073638;28;20592;-70
2021/07/18 09:32:30;;;;;;;1.92;1.80;;;;;;;30.45;32.57;100496.88;5075081;28;20736;-70
2021/07/18 09:35:01;;;;;;;1.70;1.60;;;;;;;30.75;32.76;100499.56;5076476;28;20188;-69
2021/07/18 09:37:31;;;;;;;1.52;1.42;;;;;;;31.06;31.57;100501.09;5081675;28;20281;-70
2021/07/18 09:40:01;;;;;;;2.50;1.70;;;;;;;31.57;33.30;100507.72;5080448;28;20229;-70
2021/07/18 09:42:36;;;;;;;2.30;1.75;;;;;;;30.95;32.27;100504.75;5076527;28;20676;-70
2021/07/18 09:45:14;;;;;;;1.80;1.58;;;;;;;31.66;31.79;100511.78;5075723;28;20201;-69
2021/07/18 09:48:00;;;;;;;4.13;1.92;;;;;;;31.66;30.23;100442.34;5087528;28;20189;-68
2021/07/18 09:50:31;;;;;;;1.85;1.70;;;;;;;32.08;31.79;100514.22;5090601;28;20235;-68
2021/07/18 09:53:12;;;;;;;2.15;1.67;;;;;;;31.76;32.14;100483.38;5076367;28;20270;-67
2021/07/18 09:55:56;;;;;;;1.50;1.40;;;;;;;31.78;31.81;100512.59;5078196;28;20707;-67
2021/07/18 09:58:25;;;;;;;2.10;1.35;;;;;;;31.29;32.69;100471.63;5077671;28;20232;-66
2021/07/18 10:00:53;;;;;;;1.95;1.50;;;;;;;31.38;32.01;100515.38;5085128;28;20181;-69
2021/07/18 10:03:27;;;;;;;1.70;1.60;;;;;;;31.49;31.79;100510.88;5080567;28;20193;-69
2021/07/18 10:06:09;;;;;;;1.52;1.42;;;;;;;31.53;31.75;100509.28;5084418;28;20238;-69
2021/07/18 10:08:39;;;;;;;1.52;1.42;;;;;;;31.18;31.70;100510.25;5083715;28;20200;-68
2021/07/18 10:11:09;;;;;;;2.30;1.60;;;;;;;30.75;31.11;100504.28;5072974;28;20347;-69
2021/07/18 10:13:38;;;;;;;1.50;1.40;;;;;;;30.77;31.84;100515.97;5073982;28;20243;-67
2021/07/18 10:16:07;;;;;;;1.50;1.40;;;;;;;31.33;33.13;100517.22;5075919;28;20200;-67
2021/07/18 10:18:38;;;;;;;1.45;1.35;;;;;;;31.46;32.36;100516.94;5077898;28;20530;-67
2021/07/18 10:21:12;;;;;;;1.92;1.48;;;;;;;31.02;31.55;100515.69;5076606;28;20240;-68
2021/07/18 10:23:42;;;;;;;3.10;1.80;;;;;;;30.97;31.45;100524.75;5078164;28;20656;-68
2021/07/18 10:26:20;;;;;;;1.48;1.38;;;;;;;30.68;31.46;100520.19;5076153;28;20688;-68
2021/07/18 10:28:50;;;;;;;2.30;1.50;;;;;;;30.04;31.91;100524.69;5079611;28;20299;-67
2021/07/18 10:31:26;;;;;;;1.50;1.40;;;;;;;30.06;32.62;100516.97;5074831;28;20212;-67
2021/07/18 10:33:58;;;;;;;1.90;1.50;;;;;;;30.21;32.67;100515.41;5076104;28;20693;-70
2021/07/18 10:36:29;;;;;;;1.40;1.30;;;;;;;30.40;31.33;100518.94;5072440;28;20209;-68
2021/07/18 10:38:57;;;;;;;2.05;1.67;;;;;;;30.54;32.11;100509.31;5073591;28;20205;-68
2021/07/18 10:41:42;;;;;;;1.67;1.58;;;;;;;31.25;32.22;100509.28;5076224;28;20298;-68
2021/07/18 10:44:16;;;;;;;1.48;1.38;;;;;;;31.01;30.34;100512.09;5073288;28;20205;-67
2021/07/18 10:46:55;;;;;;;1.50;1.40;;;;;;;30.69;31.84;100444.22;5071279;28;20197;-67
2021/07/18 10:49:51;;;;;;;1.95;1.50;;;;;;;30.76;29.88;100509.56;5071842;28;20670;-67
2021/07/18 10:52:20;;;;;;;1.80;1.70;;;;;;;30.13;30.83;100517.69;5073831;28;20299;-67
2021/07/18 10:54:48;;;;;;;1.65;1.50;;;;;;;30.06;32.00;100505.88;5076085;28;20266;-67
2021/07/18 10:57:26;;;;;;;1.52;1.42;;;;;;;30.48;31.20;100515.81;5072895;28;20224;-68
2021/07/18 10:59:54;;;;;;;1.73;1.50;;;;;;;30.87;31.84;100503.16;5076033;28;20299;-67
2021/07/18 11:02:33;;;;;;;1.55;1.45;;;;;;;31.24;32.17;100507.59;5076268;28;20216;-68
2021/07/18 11:05:05;;;;;;;2.13;1.45;;;;;;;31.18;31.60;100510.25;5073079;28;20242;-67
2021/07/18 11:07:36;;;;;;;1.80;1.50;;;;;;;31.03;30.59;100470.22;5075123;28;20592;-67
2021/07/18 11:10:21;;;;;;;1.55;1.45;;;;;;;30.78;29.73;100521.28;5076371;28;20231;-67
2021/07/18 11:13:00;;;;;;;2.15;1.33;;;;;;;30.45;31.00;100516.31;5074322;28;20238;-67
2021/07/18 11:15:34;;;;;;;1.52;1.30;;;;;;;30.23;32.08;100518.78;5074953;28;20231;-69
2021/07/18 11:18:05;;;;;;;1.40;1.30;;;;;;;30.29;32.91;100528.06;5074430;28;20688;-69
2021/07/18 11:20:56;;;;;;;1.77;1.42;;;;;;;30.43;31.28;100512.94;5073279;28;20680;-69
2021/07/18 11:23:35;;;;;;;1.35;1.25;;;;;;;30.59;31.16;100514.97;5073408;28;20197;-67
2021/07/18 11:26:16;;;;;;;1.75;1.55;;;;;;;30.54;30.45;100514.84;5072239;28;20300;-67
2021/07/18 11:29:06;;;;;;;1.70;1.30;;;;;;;30.46;30.73;100509.66;5075147;28;20193;-66
2021/07/18 11:31:42;;;;;;;3.08;1.42;;;;;;;30.66;30.49;100505.72;5073554;28;20646;-66
2021/07/18 11:34:16;;;;;;;1.58;1.48;;;;;;;30.53;30.25;100512.31;5072556;28;20220;-66
2021/07/18 11:37:00;;;;;;;1.45;1.35;;;;;;;30.73;29.37;100514.75;5073866;28;20685;-67
2021/07/18 11:39:30;;;;;;;1.65;1.55;;;;;;;30.62;30.78;100523.94;5075392;28;20205;-66
2021/07/18 11:42:02;;;;;;;1.92;1.75;;;;;;;30.27;30.11;100525.53;5073140;28;20246;-69